createdAt,value
2023-07-11T00:01:32.265Z,24.30
2023-07-11T00:04:00.503Z,24.30
2023-07-11T00:06:29.796Z,24.20
2023-07-11T00:08:57.941Z,24.10
2023-07-11T00:11:26.665Z,24.00
2023-07-11T00:13:56.787Z,23.90
2023-07-11T00:16:25.085Z,23.90
2023-07-11T00:18:55.519Z,23.70
2023-07-11T00:21:23.628Z,23.70
2023-07-11T00:23:51.729Z,23.60
2023-07-11T00:26:20.940Z,23.50
2023-07-11T00:28:49.038Z,23.40
2023-07-11T00:31:17.157Z,23.40
2023-07-11T00:33:45.276Z,23.30
2023-07-11T00:36:14.789Z,23.20
2023-07-11T00:38:42.858Z,23.10
2023-07-11T00:41:10.936Z,23.10
2023-07-11T00:43:39.016Z,23.00
2023-07-11T00:46:14.331Z,23.00
2023-07-11T00:48:46.974Z,22.90
2023-07-11T00:51:22.157Z,22.90
2023-07-11T00:53:50.908Z,22.80
2023-07-11T00:56:22.054Z,22.80
2023-07-11T00:58:51.007Z,22.70
2023-07-11T01:01:20.950Z,22.70
2023-07-11T01:03:50.398Z,22.60
2023-07-11T01:06:23.225Z,22.60
2023-07-11T01:08:53.058Z,22.50
2023-07-11T01:11:23.581Z,22.50
2023-07-11T01:13:51.728Z,22.50
2023-07-11T01:16:20.004Z,22.40
2023-07-11T01:18:48.526Z,22.40
2023-07-11T01:21:18.995Z,22.40
2023-07-11T01:23:48.876Z,22.40
2023-07-11T01:26:18.180Z,22.30
2023-07-11T01:28:46.378Z,22.30
2023-07-11T01:31:14.906Z,22.30
2023-07-11T01:33:43.186Z,22.20
2023-07-11T01:36:11.396Z,22.20
2023-07-11T01:38:40.874Z,22.10
2023-07-11T01:41:09.401Z,22.10
2023-07-11T01:43:38.697Z,22.10
2023-07-11T01:46:07.105Z,22.10
2023-07-11T01:48:35.444Z,22.00
2023-07-11T01:51:03.693Z,22.00
2023-07-11T01:53:32.052Z,22.00
2023-07-11T01:56:04.336Z,21.90
2023-07-11T01:58:33.753Z,21.90
2023-07-11T02:01:02.480Z,21.90
2023-07-11T02:03:30.701Z,21.80
2023-07-11T02:05:58.946Z,21.80
2023-07-11T02:08:27.351Z,21.80
2023-07-11T02:10:55.803Z,21.80
2023-07-11T02:13:25.455Z,21.70
2023-07-11T02:15:53.617Z,21.80
2023-07-11T02:18:21.987Z,21.90
2023-07-11T02:20:50.260Z,22.10
2023-07-11T02:23:18.547Z,22.30
2023-07-11T02:25:46.782Z,22.50
2023-07-11T02:28:15.057Z,22.70
2023-07-11T02:30:45.308Z,22.80
2023-07-11T02:33:13.542Z,23.00
2023-07-11T02:35:41.675Z,23.10
2023-07-11T02:38:09.785Z,23.20
2023-07-11T02:40:37.879Z,23.20
2023-07-11T02:43:06.160Z,23.10
2023-07-11T02:45:34.479Z,23.10
2023-07-11T02:48:04.566Z,23.00
2023-07-11T02:50:32.809Z,22.80
2023-07-11T02:53:00.908Z,22.70
2023-07-11T02:55:29.049Z,22.60
2023-07-11T02:57:57.244Z,22.50
2023-07-11T03:00:25.349Z,22.40
2023-07-11T03:02:53.536Z,22.30
2023-07-11T03:05:23.123Z,22.20
2023-07-11T03:07:51.330Z,22.10
2023-07-11T03:10:19.482Z,22.00
2023-07-11T03:12:47.650Z,21.90
2023-07-11T03:15:15.816Z,21.90
2023-07-11T03:17:43.940Z,21.80
2023-07-11T03:20:13.470Z,21.70
2023-07-11T03:22:42.973Z,21.70
2023-07-11T03:25:11.130Z,21.50
2023-07-11T03:27:39.248Z,21.40
2023-07-11T03:30:08.822Z,21.40
2023-07-11T03:32:36.951Z,21.40
2023-07-11T03:35:06.070Z,21.30
2023-07-11T03:37:34.302Z,21.20
2023-07-11T03:40:04.949Z,21.20
2023-07-11T03:42:33.196Z,21.10
2023-07-11T03:45:01.289Z,21.10
2023-07-11T03:47:29.713Z,21.10
2023-07-11T03:49:57.887Z,21.00
2023-07-11T03:52:25.978Z,21.00
2023-07-11T03:54:54.193Z,21.00
2023-07-11T03:57:23.691Z,20.90
2023-07-11T03:59:51.777Z,20.90
2023-07-11T04:02:19.921Z,20.90
2023-07-11T04:04:48.127Z,20.90
2023-07-11T04:07:16.225Z,20.90
2023-07-11T04:09:44.759Z,20.90
2023-07-11T04:12:13.345Z,20.80
2023-07-11T04:14:43.024Z,20.80
2023-07-11T04:17:11.193Z,20.90
2023-07-11T04:19:39.297Z,20.80
2023-07-11T04:22:07.439Z,20.80
2023-07-11T04:24:35.836Z,20.80
2023-07-11T04:27:04.193Z,20.90
2023-07-11T04:29:32.274Z,20.90
2023-07-11T04:32:01.808Z,20.90
2023-07-11T04:34:29.909Z,20.80
2023-07-11T04:36:58.028Z,20.90
2023-07-11T04:39:26.349Z,20.90
2023-07-11T04:41:54.458Z,20.90
2023-07-11T04:44:22.677Z,20.90
2023-07-11T04:46:50.955Z,20.90
2023-07-11T04:49:20.554Z,20.90
2023-07-11T04:51:48.658Z,21.00
2023-07-11T04:54:16.889Z,21.00
2023-07-11T04:56:44.994Z,21.00
2023-07-11T04:59:13.153Z,21.10
2023-07-11T05:01:41.367Z,21.10
2023-07-11T05:04:09.992Z,21.10
2023-07-11T05:06:41.677Z,21.20
2023-07-11T05:09:09.762Z,21.30
2023-07-11T05:11:38.550Z,21.30
2023-07-11T05:14:06.684Z,21.40
2023-07-11T05:16:34.886Z,21.40
2023-07-11T05:19:03.079Z,21.50
2023-07-11T05:21:32.759Z,21.50
2023-07-11T05:24:04.292Z,21.50
2023-07-11T05:26:32.829Z,21.60
2023-07-11T05:29:01.115Z,21.60
2023-07-11T05:31:29.305Z,21.70
2023-07-11T05:33:57.550Z,21.70
2023-07-11T05:36:35.106Z,21.80
2023-07-11T05:39:09.130Z,21.80
2023-07-11T05:41:39.423Z,21.90
2023-07-11T05:44:07.541Z,22.00
2023-07-11T05:46:35.690Z,22.00
2023-07-11T05:49:04.400Z,22.10
2023-07-11T05:51:32.809Z,22.10
2023-07-11T05:54:01.129Z,22.20
2023-07-11T05:56:30.606Z,22.30
2023-07-11T05:59:00.208Z,22.40
2023-07-11T06:01:30.556Z,22.50
2023-07-11T06:04:08.693Z,22.50
2023-07-11T06:06:43.218Z,22.70
2023-07-11T06:09:14.030Z,22.70
2023-07-11T06:11:44.250Z,22.90
2023-07-11T06:14:12.815Z,23.00
2023-07-11T06:16:42.708Z,23.10
2023-07-11T06:19:11.392Z,23.20
2023-07-11T06:21:39.578Z,23.30
2023-07-11T06:24:08.278Z,23.40
2023-07-11T06:26:36.361Z,23.50
2023-07-11T06:29:05.833Z,23.60
2023-07-11T06:31:34.042Z,23.70
2023-07-11T06:34:02.278Z,23.80
2023-07-11T06:36:30.402Z,23.90
2023-07-11T06:38:58.562Z,24.10
2023-07-11T06:41:26.861Z,24.20
2023-07-11T06:43:55.591Z,24.30
2023-07-11T06:46:25.219Z,24.50
2023-07-11T06:48:53.383Z,24.60
2023-07-11T06:51:21.503Z,24.80
2023-07-11T06:53:50.449Z,24.90
2023-07-11T06:56:18.544Z,25.00
2023-07-11T06:58:46.840Z,25.10
2023-07-11T07:01:26.744Z,25.20
2023-07-11T07:04:05.918Z,25.30
2023-07-11T07:06:36.346Z,25.40
2023-07-11T07:09:05.680Z,25.50
2023-07-11T07:11:33.996Z,25.60
2023-07-11T07:14:06.050Z,25.70
2023-07-11T07:16:36.016Z,25.80
2023-07-11T07:19:06.067Z,25.90
2023-07-11T07:21:34.164Z,26.00
2023-07-11T07:24:02.465Z,26.10
2023-07-11T07:26:30.799Z,26.20
2023-07-11T07:28:58.908Z,26.30
2023-07-11T07:31:27.398Z,26.40
2023-07-11T07:33:55.525Z,26.50
2023-07-11T07:36:25.146Z,26.50
2023-07-11T07:38:53.236Z,26.60
2023-07-11T07:41:22.894Z,26.70
2023-07-11T07:43:51.083Z,26.80
2023-07-11T07:46:20.616Z,26.90
2023-07-11T07:48:48.912Z,27.00
2023-07-11T07:51:20.173Z,27.00
2023-07-11T07:53:50.118Z,27.10
2023-07-11T07:56:20.355Z,27.10
2023-07-11T07:58:49.044Z,27.30
2023-07-11T08:01:19.261Z,27.40
2023-07-11T08:03:47.522Z,27.40
2023-07-11T08:06:18.281Z,27.50
2023-07-11T08:08:47.391Z,27.60
2023-07-11T08:11:18.615Z,27.70
2023-07-11T08:13:58.934Z,27.70
2023-07-11T08:16:31.571Z,27.80
2023-07-11T08:19:00.556Z,28.00
2023-07-11T08:21:28.785Z,28.10
2023-07-11T08:23:56.995Z,28.20
2023-07-11T08:26:27.078Z,28.20
2023-07-11T08:28:56.145Z,28.30
2023-07-11T08:31:25.030Z,28.40
2023-07-11T08:33:53.254Z,28.50
2023-07-11T08:36:21.344Z,28.60
2023-07-11T08:38:49.442Z,28.60
2023-07-11T08:41:29.487Z,28.70
2023-07-11T08:44:02.719Z,28.80
2023-07-11T08:46:36.893Z,28.90
2023-07-11T08:49:08.074Z,29.00
2023-07-11T08:51:39.691Z,29.10
2023-07-11T08:54:12.565Z,29.20
2023-07-11T08:56:44.318Z,29.30
2023-07-11T08:59:16.864Z,29.40
2023-07-11T09:01:51.021Z,29.50
2023-07-11T09:04:24.524Z,29.50
2023-07-11T09:06:56.618Z,29.70
2023-07-11T09:09:25.731Z,29.70
2023-07-11T09:12:07.251Z,29.80
2023-07-11T09:14:46.126Z,29.90
2023-07-11T09:17:23.632Z,30.00
2023-07-11T09:20:06.979Z,30.10
2023-07-11T09:22:57.098Z,30.20
2023-07-11T09:25:31.599Z,30.30
2023-07-11T09:28:07.531Z,30.40
2023-07-11T09:30:51.355Z,30.50
2023-07-11T09:33:23.880Z,30.60
2023-07-11T09:35:53.966Z,30.70
2023-07-11T09:38:28.127Z,30.90
2023-07-11T09:41:01.951Z,30.90
2023-07-11T09:43:31.560Z,31.00
2023-07-11T09:45:59.703Z,31.10
2023-07-11T09:48:32.255Z,31.20
2023-07-11T09:51:14.357Z,31.20
2023-07-11T09:53:46.646Z,31.30
2023-07-11T09:56:17.337Z,31.40
2023-07-11T09:58:51.344Z,31.50
2023-07-11T10:01:25.835Z,31.50
2023-07-11T10:03:56.891Z,31.60
2023-07-11T10:09:15.558Z,31.80
2023-07-11T10:11:43.743Z,31.80
2023-07-11T10:14:20.009Z,31.90
2023-07-11T10:16:48.979Z,32.00
2023-07-11T10:19:18.164Z,32.00
2023-07-11T10:21:49.548Z,32.10
2023-07-11T10:24:20.362Z,32.10
2023-07-11T10:26:52.847Z,32.20
2023-07-11T10:29:26.374Z,32.20
2023-07-11T10:32:04.506Z,32.30
2023-07-11T10:34:36.349Z,32.40
2023-07-11T10:37:14.058Z,32.40
2023-07-11T10:39:46.790Z,32.50
2023-07-11T10:42:30.572Z,32.60
2023-07-11T10:45:10.258Z,32.60
2023-07-11T10:47:42.129Z,32.70
2023-07-11T10:50:25.851Z,32.80
2023-07-11T10:52:59.448Z,32.80
2023-07-11T10:55:34.412Z,32.90
2023-07-11T10:58:03.723Z,33.00
2023-07-11T11:00:48.669Z,33.00
2023-07-11T11:03:34.986Z,33.10
2023-07-11T11:06:09.551Z,33.20
2023-07-11T11:08:43.691Z,33.20
2023-07-11T11:11:26.163Z,33.30
2023-07-11T11:14:09.793Z,33.30
2023-07-11T11:16:45.991Z,33.30
2023-07-11T11:19:24.660Z,33.40
2023-07-11T11:21:57.359Z,33.40
2023-07-11T11:24:44.461Z,33.40
2023-07-11T11:27:27.181Z,33.50
2023-07-11T11:30:03.081Z,33.50
2023-07-11T11:32:41.467Z,33.50
2023-07-11T11:35:19.590Z,33.60
2023-07-11T11:38:15.598Z,33.70
2023-07-11T11:40:48.758Z,33.70
2023-07-11T11:43:21.129Z,33.80
2023-07-11T11:51:12.762Z,33.80
2023-07-11T11:53:46.345Z,33.90
2023-07-11T11:56:23.024Z,33.90
2023-07-11T11:58:59.262Z,34.00
2023-07-11T12:01:37.040Z,34.00
2023-07-11T12:04:39.319Z,34.10
2023-07-11T12:07:21.779Z,34.10
2023-07-11T12:09:50.642Z,34.10
2023-07-11T12:12:21.023Z,34.10
2023-07-11T12:15:00.745Z,34.20
2023-07-11T12:17:50.962Z,34.20
2023-07-11T12:20:26.160Z,34.20
2023-07-11T12:23:29.854Z,34.20
2023-07-11T12:26:11.877Z,34.20
2023-07-11T12:28:42.685Z,34.20
2023-07-11T12:31:19.116Z,34.30
2023-07-11T12:34:12.964Z,34.20
2023-07-11T12:37:01.854Z,34.20
2023-07-11T12:39:53.830Z,34.20
2023-07-11T12:42:41.288Z,34.20
2023-07-11T12:45:16.928Z,34.30
2023-07-11T12:47:48.960Z,34.30
2023-07-11T12:50:22.090Z,34.30
2023-07-11T12:53:00.753Z,34.20
2023-07-11T12:55:30.474Z,34.20
2023-07-11T12:57:58.992Z,34.20
2023-07-11T13:00:31.816Z,34.20
2023-07-11T13:03:13.913Z,34.20
2023-07-11T13:05:42.013Z,34.20
2023-07-11T13:08:16.743Z,34.20
2023-07-11T13:10:51.014Z,34.20
2023-07-11T13:13:19.391Z,34.20
2023-07-11T13:15:48.196Z,34.20
2023-07-11T13:18:32.965Z,34.20
2023-07-11T13:21:02.826Z,34.10
2023-07-11T13:23:35.026Z,34.10
2023-07-11T13:26:03.554Z,34.10
2023-07-11T13:28:38.784Z,34.10
2023-07-11T13:31:09.802Z,34.00
2023-07-11T13:36:34.802Z,34.00
2023-07-11T13:39:07.655Z,34.00
2023-07-11T13:41:38.075Z,34.00
2023-07-11T13:44:16.733Z,34.00
2023-07-11T13:46:47.182Z,34.00
2023-07-11T13:49:22.315Z,34.00
2023-07-11T13:51:56.369Z,34.00
2023-07-11T13:54:32.300Z,34.10
2023-07-11T13:57:00.555Z,34.10
2023-07-11T14:02:01.637Z,34.10
2023-07-11T14:04:33.959Z,34.20
2023-07-11T14:07:02.437Z,34.20
2023-07-11T14:09:31.936Z,34.20
2023-07-11T14:12:00.075Z,34.20
2023-07-11T14:14:40.291Z,34.20
2023-07-11T14:17:15.312Z,34.10
2023-07-11T14:19:43.464Z,34.10
2023-07-11T14:22:15.884Z,34.10
2023-07-11T14:24:47.510Z,34.10
2023-07-11T14:27:18.786Z,34.10
2023-07-11T14:29:47.352Z,34.10
2023-07-11T14:32:18.236Z,34.10
2023-07-11T14:34:46.740Z,34.10
2023-07-11T14:37:16.569Z,34.10
2023-07-11T14:39:46.554Z,34.10
2023-07-11T14:42:33.191Z,34.10
2023-07-11T14:45:01.278Z,34.10
2023-07-11T14:47:29.534Z,34.10
2023-07-11T14:49:58.685Z,34.10
2023-07-11T14:52:29.780Z,34.00
2023-07-11T15:00:01.229Z,34.00
2023-07-11T15:02:32.337Z,34.00
2023-07-11T15:10:09.069Z,34.00
2023-07-11T15:17:48.968Z,34.00
2023-07-11T15:20:19.204Z,34.00
2023-07-11T15:22:49.888Z,34.00
2023-07-11T15:25:21.544Z,34.00
2023-07-11T15:27:49.633Z,34.00
2023-07-11T15:30:19.183Z,34.00
2023-07-11T15:32:47.874Z,33.90
2023-07-11T15:35:17.419Z,33.90
2023-07-11T15:37:45.986Z,33.90
2023-07-11T15:40:21.285Z,33.80
2023-07-11T15:42:51.345Z,33.80
2023-07-11T15:45:24.492Z,33.80
2023-07-11T15:47:53.150Z,33.80
2023-07-11T15:50:22.746Z,33.80
2023-07-11T15:52:51.061Z,33.80
2023-07-11T15:55:22.183Z,33.80
2023-07-11T15:57:50.887Z,33.80
2023-07-11T16:00:21.714Z,33.80
2023-07-11T16:02:50.514Z,33.80
2023-07-11T16:05:19.924Z,33.80
2023-07-11T16:07:48.971Z,33.70
2023-07-11T16:10:25.188Z,33.70
2023-07-11T16:12:53.658Z,33.70
2023-07-11T16:15:31.494Z,33.70
2023-07-11T16:17:59.787Z,33.70
2023-07-11T16:20:30.512Z,33.70
2023-07-11T16:22:58.605Z,33.70
2023-07-11T16:25:29.645Z,33.70
2023-07-11T16:28:00.685Z,33.70
2023-07-11T16:30:30.937Z,33.60
2023-07-11T16:33:00.169Z,33.60
2023-07-11T16:35:30.820Z,33.60
2023-07-11T16:38:03.546Z,33.60
2023-07-11T16:40:33.912Z,33.60
2023-07-11T16:43:02.088Z,33.60
2023-07-11T16:45:33.724Z,33.60
2023-07-11T16:48:02.724Z,33.60
2023-07-11T16:50:30.962Z,33.60
2023-07-11T16:53:01.336Z,33.60
2023-07-11T16:55:29.944Z,33.50
2023-07-11T16:57:59.405Z,33.50
2023-07-11T17:00:28.722Z,33.50
2023-07-11T17:02:56.935Z,33.50
2023-07-11T17:05:28.235Z,33.50
2023-07-11T17:07:56.753Z,33.50
2023-07-11T17:10:24.843Z,33.50
2023-07-11T17:12:53.045Z,33.50
2023-07-11T17:15:22.702Z,33.40
2023-07-11T17:17:50.910Z,33.40
2023-07-11T17:20:21.843Z,33.40
2023-07-11T17:22:50.499Z,33.40
2023-07-11T17:25:20.086Z,33.30
2023-07-11T17:27:50.913Z,33.40
2023-07-11T17:30:22.790Z,33.30
2023-07-11T17:32:51.019Z,33.30
2023-07-11T17:35:19.343Z,33.30
2023-07-11T17:37:49.383Z,33.20
2023-07-11T17:40:22.766Z,33.20
2023-07-11T17:42:51.135Z,33.20
2023-07-11T17:45:34.822Z,33.10
2023-07-11T17:48:18.288Z,33.10
2023-07-11T17:50:48.232Z,33.10
2023-07-11T17:53:17.253Z,33.10
2023-07-11T17:55:46.957Z,33.10
2023-07-11T17:58:27.584Z,33.10
2023-07-11T18:00:57.705Z,33.00
2023-07-11T18:03:29.094Z,32.90
2023-07-11T18:05:58.142Z,32.90
2023-07-11T18:08:27.266Z,32.90
2023-07-11T18:10:55.398Z,32.80
2023-07-11T18:13:23.596Z,32.80
2023-07-11T18:15:51.911Z,32.70
2023-07-11T18:18:25.362Z,32.70
2023-07-11T18:20:56.561Z,32.60
2023-07-11T18:23:25.390Z,32.60
2023-07-11T18:25:54.802Z,32.60
2023-07-11T18:28:24.337Z,32.50
2023-07-11T18:30:53.047Z,32.50
2023-07-11T18:33:22.283Z,32.50
2023-07-11T18:35:51.355Z,32.40
2023-07-11T18:38:23.015Z,32.40
2023-07-11T18:40:51.998Z,32.40
2023-07-11T18:43:20.182Z,32.30
2023-07-11T18:45:50.081Z,32.30
2023-07-11T18:48:18.473Z,32.30
2023-07-11T18:50:46.783Z,32.20
2023-07-11T18:53:14.961Z,32.30
2023-07-11T18:55:47.253Z,32.20
2023-07-11T18:58:18.609Z,32.20
2023-07-11T19:00:49.726Z,32.10
2023-07-11T19:03:19.674Z,32.10
2023-07-11T19:05:48.514Z,32.00
2023-07-11T19:08:18.488Z,32.00
2023-07-11T19:10:48.982Z,31.90
2023-07-11T19:13:17.253Z,31.80
2023-07-11T19:15:46.879Z,31.80
2023-07-11T19:18:18.694Z,31.70
2023-07-11T19:20:47.029Z,31.60
2023-07-11T19:23:19.843Z,31.60
2023-07-11T19:25:51.257Z,31.50
2023-07-11T19:28:21.712Z,31.50
2023-07-11T19:30:51.915Z,31.30
2023-07-11T19:33:21.298Z,31.30
2023-07-11T19:35:51.584Z,31.10
2023-07-11T19:38:22.131Z,31.10
2023-07-11T19:40:53.387Z,31.00
2023-07-11T19:43:21.885Z,30.90
2023-07-11T19:45:53.049Z,30.80
2023-07-11T19:48:22.613Z,30.70
2023-07-11T19:50:53.632Z,30.60
2023-07-11T19:53:23.457Z,30.60
2023-07-11T19:55:55.680Z,30.50
2023-07-11T19:58:26.227Z,30.40
2023-07-11T20:00:59.050Z,30.30
2023-07-11T20:03:27.935Z,30.20
2023-07-11T20:05:56.342Z,30.20
2023-07-11T20:08:26.464Z,30.10
2023-07-11T20:10:57.834Z,30.10
2023-07-11T20:13:26.729Z,30.00
2023-07-11T20:15:59.982Z,30.00
2023-07-11T20:18:29.595Z,30.00
2023-07-11T20:21:00.205Z,29.90
2023-07-11T20:23:28.664Z,29.90
2023-07-11T20:26:00.790Z,29.90
2023-07-11T20:28:33.111Z,29.80
2023-07-11T20:31:01.674Z,29.70
2023-07-11T20:33:29.803Z,29.70
2023-07-11T20:35:58.344Z,29.60
2023-07-11T20:38:26.444Z,29.60
2023-07-11T20:40:54.713Z,29.50
2023-07-11T20:43:24.177Z,29.50
2023-07-11T20:45:52.624Z,29.50
2023-07-11T20:48:22.428Z,29.40
2023-07-11T20:50:51.677Z,29.30
2023-07-11T20:53:22.070Z,29.30
2023-07-11T20:55:55.707Z,29.20
2023-07-11T20:58:25.356Z,29.20
2023-07-11T21:00:53.850Z,29.10
2023-07-11T21:03:22.528Z,29.10
2023-07-11T21:05:51.094Z,29.00
2023-07-11T21:08:26.588Z,28.90
2023-07-11T21:10:55.219Z,28.90
2023-07-11T21:13:23.607Z,28.80
2023-07-11T21:15:54.437Z,28.80
2023-07-11T21:18:24.400Z,28.70
2023-07-11T21:20:54.789Z,28.70
2023-07-11T21:23:24.001Z,28.60
2023-07-11T21:25:54.172Z,28.50
2023-07-11T21:28:28.797Z,28.50
2023-07-11T21:31:00.528Z,28.50
2023-07-11T21:33:29.586Z,28.40
2023-07-11T21:36:01.826Z,28.40
2023-07-11T21:38:31.950Z,28.40
2023-07-11T21:41:01.339Z,28.30
2023-07-11T21:43:29.492Z,28.30
2023-07-11T21:45:59.670Z,28.20
2023-07-11T21:48:29.386Z,28.20
2023-07-11T21:50:58.652Z,28.20
2023-07-11T21:53:28.152Z,28.20
2023-07-11T21:55:58.689Z,28.20
2023-07-11T21:58:27.717Z,28.20
2023-07-11T22:00:55.900Z,28.20
2023-07-11T22:03:27.416Z,28.20
2023-07-11T22:05:57.690Z,28.10
2023-07-11T22:08:28.609Z,28.10
2023-07-11T22:10:57.399Z,28.10
2023-07-11T22:13:29.340Z,28.00
2023-07-11T22:15:58.227Z,28.00
2023-07-11T22:18:29.906Z,28.00
2023-07-11T22:20:58.679Z,28.00
2023-07-11T22:23:27.225Z,28.00
2023-07-11T22:25:55.313Z,27.90
2023-07-11T22:28:25.320Z,27.90
2023-07-11T22:30:54.778Z,27.90
2023-07-11T22:33:22.962Z,27.90
2023-07-11T22:35:52.460Z,27.90
2023-07-11T22:38:20.561Z,27.90
2023-07-11T22:40:49.881Z,27.90
2023-07-11T22:43:19.640Z,27.90
2023-07-11T22:45:50.365Z,27.90
2023-07-11T22:48:20.485Z,27.90
2023-07-11T22:50:50.187Z,27.90
2023-07-11T22:53:21.345Z,27.90
2023-07-11T22:55:52.674Z,27.90
2023-07-11T22:58:24.897Z,27.80
2023-07-11T23:00:54.155Z,27.80
2023-07-11T23:03:23.058Z,27.80
2023-07-11T23:05:52.890Z,27.80
2023-07-11T23:08:24.369Z,27.80
2023-07-11T23:10:52.355Z,27.70
2023-07-11T23:13:20.750Z,27.70
2023-07-11T23:15:52.657Z,27.70
2023-07-11T23:18:25.299Z,27.60
2023-07-11T23:20:55.799Z,27.60
2023-07-11T23:23:26.804Z,27.50
2023-07-11T23:25:56.338Z,27.40
2023-07-11T23:28:26.323Z,27.30
2023-07-11T23:30:55.759Z,27.30
2023-07-11T23:33:25.040Z,27.20
2023-07-11T23:35:54.979Z,27.10
2023-07-11T23:38:24.806Z,27.10
2023-07-11T23:40:54.423Z,27.00
2023-07-11T23:43:25.113Z,27.00
2023-07-11T23:45:54.745Z,26.90
2023-07-11T23:48:25.569Z,26.90
2023-07-11T23:50:55.755Z,26.90
2023-07-11T23:53:26.324Z,26.80
2023-07-11T23:55:57.723Z,26.80
2023-07-11T23:58:28.412Z,26.80
